createdAt,value
2023-03-17T00:00:47.824Z,101776.55
2023-03-17T00:03:29.868Z,101775.54
2023-03-17T00:06:00.528Z,101774.50
2023-03-17T00:08:31.780Z,101778.81
2023-03-17T00:11:00.531Z,101780.23
2023-03-17T00:13:30.887Z,101782.03
2023-03-17T00:16:05.373Z,101780.23
2023-03-17T00:18:35.375Z,101775.99
2023-03-17T00:21:04.692Z,101778.92
2023-03-17T00:23:32.984Z,101777.40
2023-03-17T00:26:01.978Z,101774.52
2023-03-17T00:28:30.269Z,101775.02
2023-03-17T00:31:06.987Z,101772.60
2023-03-17T00:33:37.371Z,101767.74
2023-03-17T00:36:06.800Z,101772.52
2023-03-17T00:38:35.303Z,101773.07
2023-03-17T00:41:04.571Z,101771.52
2023-03-17T00:43:32.871Z,101765.02
2023-03-17T00:46:01.558Z,101768.15
2023-03-17T00:48:32.552Z,101763.86
2023-03-17T00:51:00.889Z,101767.79
2023-03-17T00:53:30.521Z,101766.77
2023-03-17T00:56:00.889Z,101771.90
2023-03-17T00:58:31.834Z,101770.55
2023-03-17T01:01:01.238Z,101769.41
2023-03-17T01:03:29.692Z,101773.40
2023-03-17T01:05:57.959Z,101772.41
2023-03-17T01:08:26.599Z,101766.66
2023-03-17T01:10:54.885Z,101767.42
2023-03-17T01:13:23.972Z,101762.69
2023-03-17T01:15:52.895Z,101757.91
2023-03-17T01:18:22.993Z,101758.29
2023-03-17T01:20:51.824Z,101756.44
2023-03-17T01:23:20.086Z,101753.19
2023-03-17T01:25:49.373Z,101748.42
2023-03-17T01:28:19.639Z,101743.23
2023-03-17T01:30:48.084Z,101744.83
2023-03-17T01:33:16.147Z,101742.98
2023-03-17T01:35:46.059Z,101740.95
2023-03-17T01:38:15.148Z,101739.77
2023-03-17T01:40:47.312Z,101739.92
2023-03-17T01:43:17.511Z,101740.05
2023-03-17T01:46:17.259Z,101739.86
2023-03-17T01:49:06.724Z,101741.59
2023-03-17T01:51:40.523Z,101742.08
2023-03-17T01:54:14.631Z,101740.18
2023-03-17T01:56:45.398Z,101738.30
2023-03-17T01:59:23.876Z,101730.36
2023-03-17T02:01:58.266Z,101726.40
2023-03-17T02:04:27.144Z,101722.45
2023-03-17T02:06:58.940Z,101716.48
2023-03-17T02:09:28.480Z,101717.83
2023-03-17T02:12:00.917Z,101720.01
2023-03-17T02:14:29.430Z,101719.61
2023-03-17T02:16:57.764Z,101718.65
2023-03-17T02:19:25.899Z,101717.82
2023-03-17T02:21:57.032Z,101711.15
2023-03-17T02:24:34.832Z,101711.28
2023-03-17T02:27:16.088Z,101711.56
2023-03-17T02:29:46.435Z,101710.21
2023-03-17T02:32:17.817Z,101713.67
2023-03-17T02:34:47.988Z,101710.71
2023-03-17T02:37:18.337Z,101705.88
2023-03-17T02:39:46.865Z,101696.91
2023-03-17T02:42:15.083Z,101698.04
2023-03-17T02:44:43.748Z,101700.38
2023-03-17T02:47:13.143Z,101702.94
2023-03-17T02:49:41.949Z,101702.76
2023-03-17T02:52:10.077Z,101702.20
2023-03-17T02:54:38.587Z,101702.13
2023-03-17T02:57:08.532Z,101700.79
2023-03-17T02:59:37.736Z,101697.33
2023-03-17T03:02:05.852Z,101693.05
2023-03-17T03:04:34.248Z,101696.20
2023-03-17T03:07:02.952Z,101696.40
2023-03-17T03:09:31.010Z,101691.94
2023-03-17T03:12:00.613Z,101690.70
2023-03-17T03:14:28.806Z,101691.88
2023-03-17T03:16:56.883Z,101698.58
2023-03-17T03:19:25.024Z,101697.77
2023-03-17T03:21:53.318Z,101700.90
2023-03-17T03:24:21.792Z,101702.45
2023-03-17T03:26:49.842Z,101708.86
2023-03-17T03:29:18.097Z,101704.77
2023-03-17T03:31:48.210Z,101701.53
2023-03-17T03:34:16.658Z,101695.86
2023-03-17T03:36:44.799Z,101692.40
2023-03-17T03:39:14.523Z,101696.03
2023-03-17T03:41:43.729Z,101699.27
2023-03-17T03:44:11.900Z,101704.09
2023-03-17T03:46:39.962Z,101698.42
2023-03-17T03:49:08.102Z,101700.65
2023-03-17T03:51:36.783Z,101700.16
2023-03-17T03:54:04.958Z,101705.84
2023-03-17T03:56:33.402Z,101705.51
2023-03-17T03:59:01.718Z,101700.02
2023-03-17T04:01:29.794Z,101701.50
2023-03-17T04:03:57.968Z,101699.77
2023-03-17T04:06:26.129Z,101707.80
2023-03-17T04:08:55.444Z,101706.62
2023-03-17T04:11:25.157Z,101710.04
2023-03-17T04:13:53.302Z,101704.72
2023-03-17T04:16:21.587Z,101694.06
2023-03-17T04:18:49.827Z,101687.73
2023-03-17T04:21:19.154Z,101690.66
2023-03-17T04:23:47.794Z,101683.77
2023-03-17T04:26:17.904Z,101676.66
2023-03-17T04:28:46.030Z,101682.08
2023-03-17T04:31:14.241Z,101686.66
2023-03-17T04:33:42.494Z,101692.31
2023-03-17T04:36:20.141Z,101702.98
2023-03-17T04:38:48.242Z,101700.80
2023-03-17T04:41:16.399Z,101680.55
2023-03-17T04:43:45.069Z,101665.09
2023-03-17T04:46:14.324Z,101665.90
2023-03-17T04:48:42.632Z,101664.37
2023-03-17T04:51:11.856Z,101663.61
2023-03-17T04:53:40.243Z,101664.09
2023-03-17T04:56:08.692Z,101664.39
2023-03-17T04:58:36.930Z,101671.11
2023-03-17T05:01:05.602Z,101671.11
2023-03-17T05:03:33.922Z,101664.63
2023-03-17T05:06:03.219Z,101668.39
2023-03-17T05:08:31.292Z,101665.16
2023-03-17T05:10:59.365Z,101660.77
2023-03-17T05:13:27.634Z,101655.77
2023-03-17T05:15:57.008Z,101659.98
2023-03-17T05:18:26.042Z,101658.77
2023-03-17T05:20:54.205Z,101661.34
2023-03-17T05:23:23.073Z,101663.39
2023-03-17T05:25:51.310Z,101666.14
2023-03-17T05:28:22.929Z,101670.41
2023-03-17T05:30:51.092Z,101669.71
2023-03-17T05:33:20.203Z,101664.11
2023-03-17T05:35:48.313Z,101669.96
2023-03-17T05:38:17.874Z,101672.04
2023-03-17T05:40:48.908Z,101671.55
2023-03-17T05:43:17.536Z,101674.38
2023-03-17T05:45:47.377Z,101665.15
2023-03-17T05:48:15.724Z,101667.21
2023-03-17T05:50:43.843Z,101663.66
2023-03-17T05:53:11.875Z,101661.14
2023-03-17T05:55:40.629Z,101658.93
2023-03-17T05:58:09.671Z,101656.56
2023-03-17T06:00:37.871Z,101654.33
2023-03-17T06:03:06.324Z,101656.52
2023-03-17T06:05:35.802Z,101655.29
2023-03-17T06:08:05.788Z,101648.46
2023-03-17T06:10:34.161Z,101647.58
2023-03-17T06:13:03.946Z,101649.32
2023-03-17T06:15:33.935Z,101648.10
2023-03-17T06:18:05.411Z,101646.54
2023-03-17T06:20:34.586Z,101646.23
2023-03-17T06:23:05.283Z,101646.73
2023-03-17T06:25:35.665Z,101645.59
2023-03-17T06:28:05.780Z,101643.70
2023-03-17T06:30:38.093Z,101642.81
2023-03-17T06:33:08.386Z,101649.45
2023-03-17T06:35:36.784Z,101650.48
2023-03-17T06:38:05.455Z,101651.84
2023-03-17T06:40:34.208Z,101656.96
2023-03-17T06:43:03.075Z,101659.21
2023-03-17T06:45:33.097Z,101658.54
2023-03-17T06:48:02.410Z,101663.56
2023-03-17T06:50:30.972Z,101666.18
2023-03-17T06:52:59.338Z,101660.54
2023-03-17T06:55:27.658Z,101655.84
2023-03-17T06:57:56.199Z,101656.69
2023-03-17T07:00:24.446Z,101659.77
2023-03-17T07:02:52.820Z,101663.74
2023-03-17T07:05:21.165Z,101668.19
2023-03-17T07:07:49.930Z,101670.41
2023-03-17T07:10:19.101Z,101667.02
2023-03-17T07:12:47.204Z,101663.64
2023-03-17T07:15:17.316Z,101668.17
2023-03-17T07:17:47.027Z,101666.16
2023-03-17T07:20:15.258Z,101664.73
2023-03-17T07:22:43.587Z,101661.05
2023-03-17T07:25:11.734Z,101655.31
2023-03-17T07:27:39.995Z,101647.64
2023-03-17T07:30:09.467Z,101649.36
2023-03-17T07:32:37.781Z,101649.76
2023-03-17T07:35:07.451Z,101645.04
2023-03-17T07:37:35.617Z,101640.14
2023-03-17T07:40:04.969Z,101636.25
2023-03-17T07:42:34.174Z,101633.23
2023-03-17T07:45:03.917Z,101633.98
2023-03-17T07:47:32.083Z,101630.30
2023-03-17T07:50:00.176Z,101627.27
2023-03-17T07:52:28.481Z,101634.38
2023-03-17T07:54:58.314Z,101634.76
2023-03-17T07:57:27.335Z,101632.05
2023-03-17T07:59:56.037Z,101636.20
2023-03-17T08:02:25.295Z,101632.66
2023-03-17T08:04:54.084Z,101627.61
2023-03-17T08:07:22.221Z,101628.88
2023-03-17T08:09:50.457Z,101627.05
2023-03-17T08:12:18.633Z,101618.52
2023-03-17T08:14:46.928Z,101614.77
2023-03-17T08:17:15.296Z,101612.11
2023-03-17T08:19:43.935Z,101607.38
2023-03-17T08:22:12.539Z,101604.88
2023-03-17T08:24:43.059Z,101599.77
2023-03-17T08:27:11.453Z,101600.70
2023-03-17T08:29:39.970Z,101599.93
2023-03-17T08:32:08.835Z,101596.39
2023-03-17T08:34:37.842Z,101591.34
2023-03-17T08:37:10.062Z,101588.52
2023-03-17T08:39:40.376Z,101588.77
2023-03-17T08:42:08.615Z,101587.45
2023-03-17T08:44:37.409Z,101578.80
2023-03-17T08:47:05.602Z,101580.24
2023-03-17T08:49:36.193Z,101579.11
2023-03-17T08:52:04.453Z,101573.15
2023-03-17T08:54:34.746Z,101560.33
2023-03-17T08:57:04.183Z,101565.70
2023-03-17T08:59:33.008Z,101558.38
2023-03-17T09:02:01.191Z,101556.90
2023-03-17T09:04:29.321Z,101555.58
2023-03-17T09:07:05.772Z,101558.55
2023-03-17T09:09:35.455Z,101558.62
2023-03-17T09:12:06.391Z,101551.65
2023-03-17T09:14:42.740Z,101554.10
2023-03-17T09:17:14.083Z,101550.21
2023-03-17T09:19:43.643Z,101550.80
2023-03-17T09:22:14.351Z,101547.45
2023-03-17T09:24:42.723Z,101549.56
2023-03-17T09:27:11.205Z,101540.67
2023-03-17T09:29:39.870Z,101537.77
2023-03-17T09:32:09.034Z,101542.65
2023-03-17T09:34:37.546Z,101538.23
2023-03-17T09:37:05.678Z,101531.40
2023-03-17T09:39:34.246Z,101538.67
2023-03-17T09:42:48.752Z,101539.08
2023-03-17T09:45:17.499Z,101536.57
2023-03-17T09:47:58.065Z,101533.36
2023-03-17T09:50:32.803Z,101532.73
2023-03-17T09:53:05.139Z,101523.16
2023-03-17T09:55:36.490Z,101511.52
2023-03-17T09:58:04.521Z,101509.87
2023-03-17T10:00:32.999Z,101513.70
2023-03-17T10:03:02.056Z,101509.27
2023-03-17T10:05:35.133Z,101508.45
2023-03-17T10:08:30.049Z,101511.92
2023-03-17T10:11:17.899Z,101507.50
2023-03-17T10:14:04.571Z,101498.09
2023-03-17T10:16:41.742Z,101490.73
2023-03-17T10:19:31.792Z,101478.38
2023-03-17T10:22:07.068Z,101462.91
2023-03-17T10:24:39.734Z,101456.06
2023-03-17T10:27:11.380Z,101445.23
2023-03-17T10:29:40.625Z,101435.95
2023-03-17T10:32:13.638Z,101436.67
2023-03-17T10:34:42.481Z,101435.83
2023-03-17T10:37:19.579Z,101430.86
2023-03-17T10:39:52.969Z,101435.19
2023-03-17T10:42:27.026Z,101431.57
2023-03-17T10:44:59.087Z,101434.38
2023-03-17T10:47:38.145Z,101431.30
2023-03-17T10:50:15.564Z,101423.06
2023-03-17T10:52:46.693Z,101421.36
2023-03-17T10:55:16.567Z,101413.11
2023-03-17T10:58:06.138Z,101409.52
2023-03-17T11:00:37.344Z,101412.46
2023-03-17T11:03:23.455Z,101401.46
2023-03-17T11:06:05.845Z,101396.65
2023-03-17T11:08:40.506Z,101398.39
2023-03-17T11:11:22.478Z,101396.86
2023-03-17T11:13:51.068Z,101396.70
2023-03-17T11:16:24.878Z,101395.17
2023-03-17T11:18:58.169Z,101391.38
2023-03-17T11:21:34.021Z,101391.41
2023-03-17T11:24:12.430Z,101392.30
2023-03-17T11:26:51.482Z,101382.48
2023-03-17T11:29:37.971Z,101377.33
2023-03-17T11:32:28.427Z,101373.04
2023-03-17T11:35:28.861Z,101380.30
2023-03-17T11:38:08.659Z,101375.16
2023-03-17T11:40:58.238Z,101367.60
2023-03-17T11:44:05.896Z,101363.83
2023-03-17T11:46:46.649Z,101374.18
2023-03-17T11:49:37.903Z,101376.45
2023-03-17T11:52:24.661Z,101377.67
2023-03-17T11:55:00.131Z,101372.18
2023-03-17T11:57:35.309Z,101375.13
2023-03-17T12:00:06.130Z,101376.70
2023-03-17T12:02:45.413Z,101377.56
2023-03-17T12:05:18.864Z,101368.41
2023-03-17T12:07:58.789Z,101377.92
2023-03-17T12:10:40.732Z,101370.66
2023-03-17T12:13:31.505Z,101358.90
2023-03-17T12:16:11.439Z,101360.10
2023-03-17T12:19:03.884Z,101364.41
2023-03-17T12:21:41.360Z,101360.93
2023-03-17T12:24:21.618Z,101357.12
2023-03-17T12:27:14.172Z,101351.58
2023-03-17T12:30:14.806Z,101360.02
2023-03-17T12:33:18.242Z,101364.00
2023-03-17T12:35:46.825Z,101366.40
2023-03-17T12:38:39.978Z,101364.31
2023-03-17T12:41:28.925Z,101360.14
2023-03-17T12:44:18.883Z,101351.83
2023-03-17T12:47:10.721Z,101347.83
2023-03-17T12:49:45.162Z,101347.81
2023-03-17T12:53:05.836Z,101348.81
2023-03-17T12:55:36.296Z,101341.64
2023-03-17T12:58:16.022Z,101333.11
2023-03-17T13:00:50.746Z,101326.80
2023-03-17T13:03:26.112Z,101330.48
2023-03-17T13:06:03.068Z,101317.36
2023-03-17T13:08:52.131Z,101309.60
2023-03-17T13:11:26.261Z,101298.20
2023-03-17T13:13:54.711Z,101289.58
2023-03-17T13:16:41.010Z,101269.88
2023-03-17T13:19:19.224Z,101257.63
2023-03-17T13:22:12.804Z,101263.52
2023-03-17T13:24:42.195Z,101257.13
2023-03-17T13:27:12.535Z,101242.40
2023-03-17T13:29:44.186Z,101239.64
2023-03-17T13:32:24.854Z,101250.08
2023-03-17T13:35:02.467Z,101240.77
2023-03-17T13:37:56.595Z,101237.02
2023-03-17T13:40:35.777Z,101242.09
2023-03-17T13:43:22.238Z,101249.23
2023-03-17T13:45:50.982Z,101256.90
2023-03-17T13:48:30.184Z,101264.41
2023-03-17T13:51:14.957Z,101258.35
2023-03-17T13:53:59.177Z,101245.21
2023-03-17T13:56:36.848Z,101242.49
2023-03-17T13:59:15.133Z,101239.76
2023-03-17T14:01:54.311Z,101229.75
2023-03-17T14:04:35.564Z,101223.70
2023-03-17T14:07:10.168Z,101223.88
2023-03-17T14:09:41.526Z,101221.27
2023-03-17T14:12:24.725Z,101221.95
2023-03-17T14:15:22.085Z,101228.18
2023-03-17T14:17:56.657Z,101218.13
2023-03-17T14:20:27.125Z,101212.77
2023-03-17T14:23:04.366Z,101208.84
2023-03-17T14:25:38.320Z,101208.36
2023-03-17T14:28:11.493Z,101205.45
2023-03-17T14:30:39.709Z,101205.64
2023-03-17T14:33:30.404Z,101202.35
2023-03-17T14:36:01.464Z,101207.90
2023-03-17T14:38:35.979Z,101206.20
2023-03-17T14:41:07.159Z,101205.19
2023-03-17T14:43:36.381Z,101204.70
2023-03-17T14:46:07.774Z,101203.16
2023-03-17T14:48:38.271Z,101200.42
2023-03-17T14:51:28.056Z,101193.00
2023-03-17T14:54:04.845Z,101177.45
2023-03-17T14:56:40.240Z,101180.05
2023-03-17T14:59:26.594Z,101181.11
2023-03-17T15:01:57.383Z,101171.61
2023-03-17T15:04:27.287Z,101175.27
2023-03-17T15:07:04.945Z,101165.76
2023-03-17T15:09:37.576Z,101161.27
2023-03-17T15:12:26.519Z,101162.88
2023-03-17T15:15:03.637Z,101155.61
2023-03-17T15:17:35.231Z,101158.05
2023-03-17T15:20:14.108Z,101162.74
2023-03-17T15:22:44.647Z,101157.90
2023-03-17T15:25:18.598Z,101150.98
2023-03-17T15:27:47.651Z,101149.59
2023-03-17T15:30:17.067Z,101145.61
2023-03-17T15:32:52.000Z,101145.80
2023-03-17T15:35:20.461Z,101145.80
2023-03-17T15:37:48.759Z,101152.22
2023-03-17T15:40:17.076Z,101155.52
2023-03-17T15:42:45.784Z,101152.25
2023-03-17T15:45:17.862Z,101154.17
2023-03-17T15:47:47.465Z,101145.02
2023-03-17T15:50:17.402Z,101154.36
2023-03-17T15:52:46.313Z,101157.50
2023-03-17T15:55:24.103Z,101150.93
2023-03-17T15:57:55.836Z,101149.89
2023-03-17T16:00:26.732Z,101156.81
2023-03-17T16:02:59.040Z,101154.06
2023-03-17T16:05:29.338Z,101152.69
2023-03-17T16:07:57.944Z,101153.23
2023-03-17T16:10:30.915Z,101153.41
2023-03-17T16:12:59.543Z,101141.33
2023-03-17T16:15:31.494Z,101141.33
2023-03-17T16:18:04.352Z,101143.75
2023-03-17T16:20:44.468Z,101136.84
2023-03-17T16:23:15.566Z,101137.20
2023-03-17T16:25:44.775Z,101126.65
2023-03-17T16:28:22.915Z,101136.34
2023-03-17T16:30:52.657Z,101133.23
2023-03-17T16:33:36.116Z,101137.05
2023-03-17T16:36:04.692Z,101139.50
2023-03-17T16:38:34.484Z,101137.43
2023-03-17T16:41:22.617Z,101137.80
2023-03-17T16:43:57.696Z,101137.45
2023-03-17T16:46:28.093Z,101132.96
2023-03-17T16:48:56.296Z,101126.92
2023-03-17T16:51:25.049Z,101126.41
2023-03-17T16:53:53.453Z,101131.27
2023-03-17T16:56:25.187Z,101140.25
2023-03-17T16:58:53.309Z,101131.95
2023-03-17T17:01:25.277Z,101126.95
2023-03-17T17:03:53.848Z,101118.48
2023-03-17T17:06:23.389Z,101124.39
2023-03-17T17:08:52.243Z,101127.69
2023-03-17T17:11:21.255Z,101128.39
2023-03-17T17:13:50.207Z,101129.27
2023-03-17T17:16:21.684Z,101122.17
2023-03-17T17:18:50.342Z,101134.14
2023-03-17T17:21:18.662Z,101132.77
2023-03-17T17:23:47.201Z,101136.20
2023-03-17T17:26:15.873Z,101143.66
2023-03-17T17:28:44.008Z,101147.13
2023-03-17T17:31:12.390Z,101145.08
2023-03-17T17:33:40.721Z,101145.08
2023-03-17T17:36:14.313Z,101142.31
2023-03-17T17:38:43.451Z,101139.03
2023-03-17T17:41:12.601Z,101137.66
2023-03-17T17:43:41.148Z,101144.07
2023-03-17T17:46:16.634Z,101145.30
2023-03-17T17:48:44.892Z,101144.77
2023-03-17T17:51:13.316Z,101145.82
2023-03-17T17:53:41.373Z,101143.92
2023-03-17T17:56:15.054Z,101149.29
2023-03-17T17:58:44.484Z,101152.73
2023-03-17T18:01:22.684Z,101149.83
2023-03-17T18:03:51.311Z,101148.63
2023-03-17T18:06:19.449Z,101139.29
2023-03-17T18:08:50.058Z,101141.20
2023-03-17T18:11:18.336Z,101143.98
2023-03-17T18:13:46.500Z,101144.50
2023-03-17T18:16:16.648Z,101145.89
2023-03-17T18:18:46.325Z,101142.95
2023-03-17T18:21:14.587Z,101141.58
2023-03-17T18:23:55.200Z,101131.74
2023-03-17T18:26:23.869Z,101130.20
2023-03-17T18:28:52.538Z,101134.17
2023-03-17T18:31:26.853Z,101143.16
2023-03-17T18:34:00.538Z,101148.20
2023-03-17T18:36:30.165Z,101145.79
2023-03-17T18:38:58.392Z,101139.74
2023-03-17T18:41:27.271Z,101133.70
2023-03-17T18:43:55.475Z,101129.23
2023-03-17T18:46:23.764Z,101124.07
2023-03-17T18:48:51.987Z,101128.23
2023-03-17T18:51:20.573Z,101125.46
2023-03-17T18:53:48.742Z,101132.91
2023-03-17T18:56:17.194Z,101128.07
2023-03-17T18:58:45.612Z,101133.08
2023-03-17T19:01:13.866Z,101127.91
2023-03-17T19:03:42.210Z,101127.23
2023-03-17T19:06:13.094Z,101121.88
2023-03-17T19:08:41.589Z,101110.14
2023-03-17T19:11:12.188Z,101119.14
2023-03-17T19:13:41.910Z,101124.83
2023-03-17T19:16:10.664Z,101121.04
2023-03-17T19:18:41.865Z,101124.16
2023-03-17T19:21:11.642Z,101105.67
2023-03-17T19:23:41.622Z,101107.23
2023-03-17T19:26:10.525Z,101104.13
2023-03-17T19:28:38.593Z,101103.95
2023-03-17T19:31:07.597Z,101096.02
2023-03-17T19:33:36.506Z,101098.78
2023-03-17T19:36:11.060Z,101097.93
2023-03-17T19:38:40.236Z,101094.14
2023-03-17T19:41:08.867Z,101094.48
2023-03-17T19:43:41.093Z,101089.13
2023-03-17T19:46:11.475Z,101087.58
2023-03-17T19:48:40.867Z,101084.14
2023-03-17T19:51:09.374Z,101077.92
2023-03-17T19:53:37.775Z,101082.07
2023-03-17T19:56:06.749Z,101086.92
2023-03-17T19:58:35.104Z,101082.26
2023-03-17T20:01:04.740Z,101077.25
2023-03-17T20:03:35.259Z,101075.70
2023-03-17T20:06:06.457Z,101075.53
2023-03-17T20:08:36.373Z,101071.06
2023-03-17T20:11:06.028Z,101070.20
2023-03-17T20:13:35.964Z,101068.99
2023-03-17T20:16:05.898Z,101068.14
2023-03-17T20:18:34.454Z,101072.80
2023-03-17T20:21:05.850Z,101072.98
2023-03-17T20:23:35.592Z,101072.14
2023-03-17T20:26:03.939Z,101071.61
2023-03-17T20:28:31.991Z,101062.81
2023-03-17T20:31:01.302Z,101065.73
2023-03-17T20:33:29.528Z,101064.55
2023-03-17T20:35:57.762Z,101061.45
2023-03-17T20:38:25.942Z,101055.92
2023-03-17T20:40:54.060Z,101053.69
2023-03-17T20:43:22.420Z,101056.29
2023-03-17T20:45:50.788Z,101054.73
2023-03-17T20:48:18.930Z,101053.38
2023-03-17T20:50:50.018Z,101054.41
2023-03-17T20:53:18.129Z,101053.20
2023-03-17T20:55:47.271Z,101049.58
2023-03-17T20:58:15.324Z,101050.79
2023-03-17T21:00:44.734Z,101045.77
2023-03-17T21:03:12.967Z,101049.58
2023-03-17T21:05:42.441Z,101046.30
2023-03-17T21:08:10.712Z,101044.41
2023-03-17T21:10:38.769Z,101044.08
2023-03-17T21:13:07.488Z,101040.62
2023-03-17T21:15:37.295Z,101034.59
2023-03-17T21:18:05.992Z,101034.08
2023-03-17T21:20:34.261Z,101032.17
2023-03-17T21:23:06.114Z,101031.30
2023-03-17T21:25:36.210Z,101031.83
2023-03-17T21:28:05.232Z,101034.07
2023-03-17T21:30:34.185Z,101030.78
2023-03-17T21:33:03.320Z,101028.02
2023-03-17T21:35:34.725Z,101024.74
2023-03-17T21:38:02.849Z,101029.74
2023-03-17T21:40:31.977Z,101022.32
2023-03-17T21:43:00.863Z,101024.91
2023-03-17T21:45:29.082Z,101019.05
2023-03-17T21:47:57.388Z,101018.36
2023-03-17T21:50:25.951Z,101020.45
2023-03-17T21:52:54.219Z,101020.80
2023-03-17T21:55:22.470Z,101023.39
2023-03-17T21:57:50.629Z,101025.45
2023-03-17T22:00:19.345Z,101018.37
2023-03-17T22:02:47.446Z,101013.89
2023-03-17T22:05:16.389Z,101018.20
2023-03-17T22:07:44.809Z,101017.01
2023-03-17T22:10:13.603Z,101014.76
2023-03-17T22:12:41.884Z,101012.34
2023-03-17T22:15:10.622Z,101015.11
2023-03-17T22:17:39.776Z,101018.73
2023-03-17T22:20:09.238Z,101011.83
2023-03-17T22:22:37.526Z,101013.04
2023-03-17T22:25:06.356Z,101016.33
2023-03-17T22:27:34.594Z,101015.12
2023-03-17T22:30:02.697Z,101013.91
2023-03-17T22:32:30.914Z,101008.39
2023-03-17T22:34:59.322Z,101019.27
2023-03-17T22:37:28.123Z,101010.98
2023-03-17T22:40:02.321Z,101006.33
2023-03-17T22:42:31.123Z,101008.23
2023-03-17T22:44:59.490Z,101011.33
2023-03-17T22:47:27.598Z,101012.02
2023-03-17T22:49:55.694Z,101009.60
2023-03-17T22:52:23.756Z,101008.58
2023-03-17T22:54:51.859Z,101010.98
2023-03-17T22:57:20.164Z,101014.27
2023-03-17T22:59:48.864Z,101009.27
2023-03-17T23:02:18.564Z,101001.84
2023-03-17T23:04:46.903Z,101012.19
2023-03-17T23:07:16.550Z,101002.20
2023-03-17T23:09:45.473Z,101001.16
2023-03-17T23:12:13.725Z,100998.94
2023-03-17T23:14:41.977Z,101003.77
2023-03-17T23:17:10.238Z,101003.94
2023-03-17T23:19:38.381Z,100998.25
2023-03-17T23:22:06.836Z,100991.35
2023-03-17T23:24:35.029Z,100985.48
2023-03-17T23:27:03.164Z,100993.26
2023-03-17T23:29:31.259Z,100991.02
2023-03-17T23:32:00.841Z,100990.52
2023-03-17T23:34:28.909Z,100996.04
2023-03-17T23:36:56.965Z,101001.22
2023-03-17T23:39:25.619Z,100997.77
2023-03-17T23:41:54.803Z,100999.84
2023-03-17T23:44:22.840Z,100996.73
2023-03-17T23:46:51.438Z,101001.91
2023-03-17T23:49:19.735Z,100997.25
2023-03-17T23:51:48.581Z,101001.56
2023-03-17T23:54:16.727Z,100998.46
2023-03-17T23:56:45.325Z,100989.66
2023-03-17T23:59:13.821Z,100985.71
